sensor_id;sensor_type;location;lat;lon;timestamp;pressure;altitude;pressure_sealevel;temperature;humidity
24230;BME280;12362;50.004;8.006;2023-08-06T00:02:12;99615.63;;;17.28;100.00
24230;BME280;12362;50.004;8.006;2023-08-06T00:04:37;99616.44;;;17.28;100.00
24230;BME280;12362;50.004;8.006;2023-08-06T00:07:03;99612.72;;;17.31;100.00
24230;BME280;12362;50.004;8.006;2023-08-06T00:09:29;99605.00;;;17.29;100.00
24230;BME280;12362;50.004;8.006;2023-08-06T00:11:54;99604.75;;;17.32;100.00
24230;BME280;12362;50.004;8.006;2023-08-06T00:14:20;99606.00;;;17.37;100.00
24230;BME280;12362;50.004;8.006;2023-08-06T00:16:45;99605.16;;;17.37;100.00
24230;BME280;12362;50.004;8.006;2023-08-06T00:19:11;99607.50;;;17.40;100.00
24230;BME280;12362;50.004;8.006;2023-08-06T00:21:37;99589.41;;;17.37;100.00
24230;BME280;12362;50.004;8.006;2023-08-06T00:24:02;99590.34;;;17.36;100.00
24230;BME280;12362;50.004;8.006;2023-08-06T00:26:28;99585.28;;;17.44;100.00
24230;BME280;12362;50.004;8.006;2023-08-06T00:28:53;99577.00;;;17.48;100.00
24230;BME280;12362;50.004;8.006;2023-08-06T00:31:19;99574.09;;;17.51;100.00
24230;BME280;12362;50.004;8.006;2023-08-06T00:33:45;99575.88;;;17.51;100.00
24230;BME280;12362;50.004;8.006;2023-08-06T00:36:10;99565.91;;;17.54;100.00
24230;BME280;12362;50.004;8.006;2023-08-06T00:38:35;99561.38;;;17.56;100.00
24230;BME280;12362;50.004;8.006;2023-08-06T00:41:01;99559.59;;;17.57;100.00
24230;BME280;12362;50.004;8.006;2023-08-06T00:43:26;99547.69;;;17.53;100.00
24230;BME280;12362;50.004;8.006;2023-08-06T00:45:52;99545.63;;;17.56;100.00
24230;BME280;12362;50.004;8.006;2023-08-06T00:48:17;99539.25;;;17.59;100.00
24230;BME280;12362;50.004;8.006;2023-08-06T00:50:44;99534.97;;;17.67;100.00
24230;BME280;12362;50.004;8.006;2023-08-06T00:53:10;99539.66;;;17.73;100.00
24230;BME280;12362;50.004;8.006;2023-08-06T00:55:35;99533.56;;;17.73;100.00
24230;BME280;12362;50.004;8.006;2023-08-06T00:58:02;99531.53;;;17.67;100.00
24230;BME280;12362;50.004;8.006;2023-08-06T01:00:28;99533.03;;;17.60;100.00
24230;BME280;12362;50.004;8.006;2023-08-06T01:02:54;99533.19;;;17.58;100.00
24230;BME280;12362;50.004;8.006;2023-08-06T01:05:20;99544.78;;;17.46;100.00
24230;BME280;12362;50.004;8.006;2023-08-06T01:08:15;99550.03;;;17.37;100.00
24230;BME280;12362;50.004;8.006;2023-08-06T01:11:32;99530.56;;;17.30;100.00
24230;BME280;12362;50.004;8.006;2023-08-06T01:14:00;99539.41;;;17.29;100.00
24230;BME280;12362;50.004;8.006;2023-08-06T01:16:26;99533.88;;;17.32;100.00
24230;BME280;12362;50.004;8.006;2023-08-06T01:18:52;99535.09;;;17.28;100.00
24230;BME280;12362;50.004;8.006;2023-08-06T01:21:18;99528.75;;;17.21;100.00
24230;BME280;12362;50.004;8.006;2023-08-06T01:23:45;99527.22;;;17.28;100.00
24230;BME280;12362;50.004;8.006;2023-08-06T01:26:34;99525.31;;;17.30;100.00
24230;BME280;12362;50.004;8.006;2023-08-06T01:29:41;99534.97;;;17.30;100.00
24230;BME280;12362;50.004;8.006;2023-08-06T01:32:11;99527.22;;;17.28;100.00
24230;BME280;12362;50.004;8.006;2023-08-06T01:34:39;99521.16;;;17.28;100.00
24230;BME280;12362;50.004;8.006;2023-08-06T01:37:06;99518.41;;;17.29;100.00
24230;BME280;12362;50.004;8.006;2023-08-06T01:39:34;99523.38;;;17.32;100.00
24230;BME280;12362;50.004;8.006;2023-08-06T01:42:01;99513.28;;;17.28;100.00
24230;BME280;12362;50.004;8.006;2023-08-06T01:44:27;99510.53;;;17.29;100.00
24230;BME280;12362;50.004;8.006;2023-08-06T01:46:53;99513.81;;;17.22;100.00
24230;BME280;12362;50.004;8.006;2023-08-06T01:49:18;99508.00;;;17.18;100.00
24230;BME280;12362;50.004;8.006;2023-08-06T01:51:44;99519.44;;;17.08;100.00
24230;BME280;12362;50.004;8.006;2023-08-06T01:54:09;99508.69;;;17.01;100.00
24230;BME280;12362;50.004;8.006;2023-08-06T01:56:35;99504.28;;;17.02;100.00
24230;BME280;12362;50.004;8.006;2023-08-06T01:59:00;99500.13;;;16.99;100.00
24230;BME280;12362;50.004;8.006;2023-08-06T02:01:25;99499.03;;;17.02;100.00
24230;BME280;12362;50.004;8.006;2023-08-06T02:03:51;99490.84;;;16.86;100.00
24230;BME280;12362;50.004;8.006;2023-08-06T02:06:17;99488.91;;;16.78;100.00
24230;BME280;12362;50.004;8.006;2023-08-06T02:08:44;99480.91;;;16.70;100.00
24230;BME280;12362;50.004;8.006;2023-08-06T02:11:09;99486.28;;;16.69;100.00
24230;BME280;12362;50.004;8.006;2023-08-06T02:13:35;99498.25;;;16.62;100.00
24230;BME280;12362;50.004;8.006;2023-08-06T02:16:00;99496.03;;;16.57;100.00
24230;BME280;12362;50.004;8.006;2023-08-06T02:18:26;99492.72;;;16.55;100.00
24230;BME280;12362;50.004;8.006;2023-08-06T02:20:58;99497.16;;;16.55;100.00
24230;BME280;12362;50.004;8.006;2023-08-06T02:23:24;99497.84;;;16.57;100.00
24230;BME280;12362;50.004;8.006;2023-08-06T02:26:00;99495.78;;;16.60;100.00
24230;BME280;12362;50.004;8.006;2023-08-06T02:28:27;99494.94;;;16.50;100.00
24230;BME280;12362;50.004;8.006;2023-08-06T02:30:53;99488.13;;;16.39;100.00
24230;BME280;12362;50.004;8.006;2023-08-06T02:33:18;99490.44;;;16.32;100.00
24230;BME280;12362;50.004;8.006;2023-08-06T02:35:44;99490.94;;;16.26;100.00
24230;BME280;12362;50.004;8.006;2023-08-06T02:38:10;99486.50;;;16.17;100.00
24230;BME280;12362;50.004;8.006;2023-08-06T02:40:35;99478.09;;;16.23;100.00
24230;BME280;12362;50.004;8.006;2023-08-06T02:43:01;99480.47;;;16.26;100.00
24230;BME280;12362;50.004;8.006;2023-08-06T02:45:26;99475.09;;;16.28;100.00
24230;BME280;12362;50.004;8.006;2023-08-06T02:47:52;99471.50;;;16.29;100.00
24230;BME280;12362;50.004;8.006;2023-08-06T02:50:17;99465.84;;;16.24;100.00
24230;BME280;12362;50.004;8.006;2023-08-06T02:52:43;99465.41;;;16.19;100.00
24230;BME280;12362;50.004;8.006;2023-08-06T02:55:09;99462.22;;;16.15;100.00
24230;BME280;12362;50.004;8.006;2023-08-06T02:57:39;99463.38;;;16.22;100.00
24230;BME280;12362;50.004;8.006;2023-08-06T03:00:06;99463.38;;;16.22;100.00
24230;BME280;12362;50.004;8.006;2023-08-06T03:02:32;99460.34;;;16.27;100.00
24230;BME280;12362;50.004;8.006;2023-08-06T03:05:11;99467.34;;;16.26;100.00
24230;BME280;12362;50.004;8.006;2023-08-06T03:07:41;99456.56;;;16.20;100.00
24230;BME280;12362;50.004;8.006;2023-08-06T03:10:13;99453.69;;;16.23;100.00
24230;BME280;12362;50.004;8.006;2023-08-06T03:12:39;99448.91;;;16.28;100.00
24230;BME280;12362;50.004;8.006;2023-08-06T03:15:05;99446.13;;;16.29;100.00
24230;BME280;12362;50.004;8.006;2023-08-06T03:17:31;99447.88;;;16.40;100.00
24230;BME280;12362;50.004;8.006;2023-08-06T03:19:57;99443.44;;;16.40;100.00
24230;BME280;12362;50.004;8.006;2023-08-06T03:22:23;99441.94;;;16.47;100.00
24230;BME280;12362;50.004;8.006;2023-08-06T03:24:50;99436.84;;;16.45;100.00
24230;BME280;12362;50.004;8.006;2023-08-06T03:27:17;99432.44;;;16.46;100.00
24230;BME280;12362;50.004;8.006;2023-08-06T03:29:43;99434.34;;;16.44;100.00
24230;BME280;12362;50.004;8.006;2023-08-06T03:32:08;99437.38;;;16.40;100.00
24230;BME280;12362;50.004;8.006;2023-08-06T03:34:34;99440.28;;;16.37;100.00
24230;BME280;12362;50.004;8.006;2023-08-06T03:37:00;99428.13;;;16.36;100.00
24230;BME280;12362;50.004;8.006;2023-08-06T03:39:26;99432.00;;;16.41;100.00
24230;BME280;12362;50.004;8.006;2023-08-06T03:41:51;99436.84;;;16.45;100.00
24230;BME280;12362;50.004;8.006;2023-08-06T03:44:17;99434.06;;;16.38;100.00
24230;BME280;12362;50.004;8.006;2023-08-06T03:46:43;99432.00;;;16.41;100.00
24230;BME280;12362;50.004;8.006;2023-08-06T03:49:09;99428.81;;;16.47;100.00
24230;BME280;12362;50.004;8.006;2023-08-06T03:51:34;99431.84;;;16.42;100.00
24230;BME280;12362;50.004;8.006;2023-08-06T03:54:01;99426.88;;;16.30;100.00
24230;BME280;12362;50.004;8.006;2023-08-06T03:56:26;99423.16;;;16.33;100.00
24230;BME280;12362;50.004;8.006;2023-08-06T03:58:52;99420.13;;;16.37;100.00
24230;BME280;12362;50.004;8.006;2023-08-06T04:01:18;99418.88;;;16.32;100.00
24230;BME280;12362;50.004;8.006;2023-08-06T04:03:45;99419.91;;;16.20;100.00
24230;BME280;12362;50.004;8.006;2023-08-06T04:06:11;99422.97;;;16.25;100.00
24230;BME280;12362;50.004;8.006;2023-08-06T04:08:36;99427.81;;;16.29;100.00
24230;BME280;12362;50.004;8.006;2023-08-06T04:11:01;99424.94;;;16.32;100.00
24230;BME280;12362;50.004;8.006;2023-08-06T04:13:27;99417.31;;;16.29;100.00
24230;BME280;12362;50.004;8.006;2023-08-06T04:15:52;99423.59;;;16.38;100.00
24230;BME280;12362;50.004;8.006;2023-08-06T04:18:20;99417.94;;;16.42;100.00
24230;BME280;12362;50.004;8.006;2023-08-06T04:20:47;99425.66;;;16.43;100.00
24230;BME280;12362;50.004;8.006;2023-08-06T04:23:14;99425.25;;;16.48;100.00
24230;BME280;12362;50.004;8.006;2023-08-06T04:25:40;99419.41;;;16.35;100.00
24230;BME280;12362;50.004;8.006;2023-08-06T04:28:07;99426.72;;;16.32;100.00
24230;BME280;12362;50.004;8.006;2023-08-06T04:30:32;99417.09;;;16.32;100.00
24230;BME280;12362;50.004;8.006;2023-08-06T04:32:58;99423.19;;;16.42;100.00
24230;BME280;12362;50.004;8.006;2023-08-06T04:35:24;99424.81;;;16.34;100.00
24230;BME280;12362;50.004;8.006;2023-08-06T04:37:50;99422.19;;;16.34;100.00
24230;BME280;12362;50.004;8.006;2023-08-06T04:40:16;99413.72;;;16.21;100.00
24230;BME280;12362;50.004;8.006;2023-08-06T04:42:42;99425.53;;;16.15;100.00
24230;BME280;12362;50.004;8.006;2023-08-06T04:45:08;99420.75;;;16.20;100.00
24230;BME280;12362;50.004;8.006;2023-08-06T04:47:34;99411.34;;;16.08;100.00
24230;BME280;12362;50.004;8.006;2023-08-06T04:49:59;99411.88;;;16.12;100.00
24230;BME280;12362;50.004;8.006;2023-08-06T04:52:24;99419.03;;;16.10;100.00
24230;BME280;12362;50.004;8.006;2023-08-06T04:54:54;99413.16;;;16.17;100.00
24230;BME280;12362;50.004;8.006;2023-08-06T04:57:19;99415.06;;;16.15;100.00
24230;BME280;12362;50.004;8.006;2023-08-06T04:59:45;99417.56;;;16.26;100.00
24230;BME280;12362;50.004;8.006;2023-08-06T05:02:10;99415.50;;;16.20;100.00
24230;BME280;12362;50.004;8.006;2023-08-06T05:04:36;99414.50;;;16.12;100.00
24230;BME280;12362;50.004;8.006;2023-08-06T05:07:01;99410.97;;;16.22;100.00
24230;BME280;12362;50.004;8.006;2023-08-06T05:09:27;99406.94;;;16.18;100.00
24230;BME280;12362;50.004;8.006;2023-08-06T05:11:52;99412.56;;;16.04;100.00
24230;BME280;12362;50.004;8.006;2023-08-06T05:14:18;99412.09;;;15.99;100.00
24230;BME280;12362;50.004;8.006;2023-08-06T05:16:43;99421.63;;;16.00;100.00
24230;BME280;12362;50.004;8.006;2023-08-06T05:19:09;99414.34;;;16.04;100.00
24230;BME280;12362;50.004;8.006;2023-08-06T05:21:34;99417.66;;;16.06;100.00
24230;BME280;12362;50.004;8.006;2023-08-06T05:23:59;99409.69;;;16.07;100.00
24230;BME280;12362;50.004;8.006;2023-08-06T05:26:25;99404.69;;;16.04;100.00
24230;BME280;12362;50.004;8.006;2023-08-06T05:28:50;99419.50;;;16.15;100.00
24230;BME280;12362;50.004;8.006;2023-08-06T05:31:16;99417.53;;;16.17;100.00
24230;BME280;12362;50.004;8.006;2023-08-06T05:33:41;99421.84;;;16.27;100.00
24230;BME280;12362;50.004;8.006;2023-08-06T05:36:06;99413.97;;;16.08;100.00
24230;BME280;12362;50.004;8.006;2023-08-06T05:38:32;99410.06;;;16.03;100.00
24230;BME280;12362;50.004;8.006;2023-08-06T05:40:57;99412.56;;;16.04;100.00
24230;BME280;12362;50.004;8.006;2023-08-06T05:43:23;99408.13;;;16.05;100.00
24230;BME280;12362;50.004;8.006;2023-08-06T05:45:51;99408.72;;;16.18;100.00
24230;BME280;12362;50.004;8.006;2023-08-06T05:48:17;99410.06;;;16.03;100.00
24230;BME280;12362;50.004;8.006;2023-08-06T05:50:43;99413.91;;;15.99;100.00
24230;BME280;12362;50.004;8.006;2023-08-06T05:53:08;99421.47;;;15.92;100.00
24230;BME280;12362;50.004;8.006;2023-08-06T05:55:34;99423.16;;;16.03;100.00
24230;BME280;12362;50.004;8.006;2023-08-06T05:58:00;99411.53;;;15.86;100.00
24230;BME280;12362;50.004;8.006;2023-08-06T06:00:26;99417.34;;;15.99;100.00
24230;BME280;12362;50.004;8.006;2023-08-06T06:02:51;99418.16;;;15.90;100.00
24230;BME280;12362;50.004;8.006;2023-08-06T06:05:17;99416.06;;;15.84;100.00
24230;BME280;12362;50.004;8.006;2023-08-06T06:07:42;99424.69;;;15.75;100.00
24230;BME280;12362;50.004;8.006;2023-08-06T06:10:08;99423.38;;;15.90;100.00
24230;BME280;12362;50.004;8.006;2023-08-06T06:12:34;99426.66;;;15.83;100.00
24230;BME280;12362;50.004;8.006;2023-08-06T06:14:59;99436.56;;;15.79;100.00
24230;BME280;12362;50.004;8.006;2023-08-06T06:17:26;99430.69;;;15.87;100.00
24230;BME280;12362;50.004;8.006;2023-08-06T06:19:52;99433.69;;;15.82;100.00
24230;BME280;12362;50.004;8.006;2023-08-06T06:22:18;99432.34;;;15.88;100.00
24230;BME280;12362;50.004;8.006;2023-08-06T06:24:43;99442.41;;;15.92;100.00
24230;BME280;12362;50.004;8.006;2023-08-06T06:27:08;99441.06;;;15.98;100.00
24230;BME280;12362;50.004;8.006;2023-08-06T06:29:34;99439.94;;;15.91;100.00
24230;BME280;12362;50.004;8.006;2023-08-06T06:31:59;99437.22;;;16.02;100.00
24230;BME280;12362;50.004;8.006;2023-08-06T06:34:25;99439.94;;;15.91;100.00
24230;BME280;12362;50.004;8.006;2023-08-06T06:36:50;99436.94;;;16.05;100.00
24230;BME280;12362;50.004;8.006;2023-08-06T06:39:17;99444.28;;;16.11;100.00
24230;BME280;12362;50.004;8.006;2023-08-06T06:41:42;99439.19;;;16.19;100.00
24230;BME280;12362;50.004;8.006;2023-08-06T06:44:17;99440.13;;;16.38;100.00
24230;BME280;12362;50.004;8.006;2023-08-06T06:46:45;99435.88;;;16.46;100.00
24230;BME280;12362;50.004;8.006;2023-08-06T06:49:10;99429.81;;;16.55;100.00
24230;BME280;12362;50.004;8.006;2023-08-06T06:51:36;99437.53;;;16.47;100.00
24230;BME280;12362;50.004;8.006;2023-08-06T06:54:01;99434.88;;;16.38;100.00
24230;BME280;12362;50.004;8.006;2023-08-06T06:56:27;99428.16;;;16.45;100.00
24230;BME280;12362;50.004;8.006;2023-08-06T06:58:52;99438.94;;;16.70;100.00
24230;BME280;12362;50.004;8.006;2023-08-06T07:01:17;99439.38;;;16.75;100.00
24230;BME280;12362;50.004;8.006;2023-08-06T07:03:43;99427.22;;;16.84;100.00
24230;BME280;12362;50.004;8.006;2023-08-06T07:06:08;99433.59;;;16.91;100.00
24230;BME280;12362;50.004;8.006;2023-08-06T07:08:34;99435.38;;;17.09;100.00
24230;BME280;12362;50.004;8.006;2023-08-06T07:11:04;99430.69;;;17.41;100.00
24230;BME280;12362;50.004;8.006;2023-08-06T07:13:31;99430.13;;;17.28;100.00
24230;BME280;12362;50.004;8.006;2023-08-06T07:15:56;99427.91;;;17.52;100.00
24230;BME280;12362;50.004;8.006;2023-08-06T07:18:23;99430.78;;;17.68;100.00
24230;BME280;12362;50.004;8.006;2023-08-06T07:20:50;99427.38;;;17.39;100.00
24230;BME280;12362;50.004;8.006;2023-08-06T07:23:16;99431.38;;;17.33;100.00
24230;BME280;12362;50.004;8.006;2023-08-06T07:25:42;99430.13;;;17.28;100.00
24230;BME280;12362;50.004;8.006;2023-08-06T07:28:08;99426.53;;;17.20;100.00
24230;BME280;12362;50.004;8.006;2023-08-06T07:30:33;99427.50;;;17.19;100.00
24230;BME280;12362;50.004;8.006;2023-08-06T07:32:59;99432.34;;;17.14;100.00
24230;BME280;12362;50.004;8.006;2023-08-06T07:35:24;99431.25;;;16.97;100.00
24230;BME280;12362;50.004;8.006;2023-08-06T07:37:50;99439.94;;;17.07;100.00
24230;BME280;12362;50.004;8.006;2023-08-06T07:40:15;99439.53;;;16.93;100.00
24230;BME280;12362;50.004;8.006;2023-08-06T07:42:41;99439.81;;;16.99;100.00
24230;BME280;12362;50.004;8.006;2023-08-06T07:45:07;99438.16;;;16.98;100.00
24230;BME280;12362;50.004;8.006;2023-08-06T07:47:33;99439.78;;;17.18;100.00
24230;BME280;12362;50.004;8.006;2023-08-06T07:49:58;99438.00;;;17.28;100.00
24230;BME280;12362;50.004;8.006;2023-08-06T07:52:24;99432.72;;;17.47;100.00
24230;BME280;12362;50.004;8.006;2023-08-06T07:54:50;99429.72;;;17.51;100.00
24230;BME280;12362;50.004;8.006;2023-08-06T07:57:15;99427.44;;;17.66;100.00
24230;BME280;12362;50.004;8.006;2023-08-06T07:59:41;99430.88;;;17.76;100.00
24230;BME280;12362;50.004;8.006;2023-08-06T08:02:07;99432.59;;;18.04;100.00
24230;BME280;12362;50.004;8.006;2023-08-06T08:04:32;99428.72;;;18.34;100.00
24230;BME280;12362;50.004;8.006;2023-08-06T08:06:58;99409.13;;;20.02;100.00
24230;BME280;12362;50.004;8.006;2023-08-06T08:09:23;99407.97;;;20.04;100.00
24230;BME280;12362;50.004;8.006;2023-08-06T08:11:49;99393.13;;;19.27;100.00
24230;BME280;12362;50.004;8.006;2023-08-06T08:14:15;99407.44;;;19.07;100.00
24230;BME280;12362;50.004;8.006;2023-08-06T08:16:41;99409.63;;;18.94;100.00
24230;BME280;12362;50.004;8.006;2023-08-06T08:19:06;99407.91;;;18.85;100.00
24230;BME280;12362;50.004;8.006;2023-08-06T08:21:32;99412.41;;;18.58;100.00
24230;BME280;12362;50.004;8.006;2023-08-06T08:24:00;99410.75;;;18.57;100.00
24230;BME280;12362;50.004;8.006;2023-08-06T08:26:25;99414.09;;;18.49;100.00
24230;BME280;12362;50.004;8.006;2023-08-06T08:28:53;99405.09;;;18.52;100.00
24230;BME280;12362;50.004;8.006;2023-08-06T08:31:19;99396.63;;;18.75;100.00
24230;BME280;12362;50.004;8.006;2023-08-06T08:33:44;99394.94;;;19.09;100.00
24230;BME280;12362;50.004;8.006;2023-08-06T08:36:10;99389.19;;;19.99;100.00
24230;BME280;12362;50.004;8.006;2023-08-06T08:38:35;99378.56;;;20.24;100.00
24230;BME280;12362;50.004;8.006;2023-08-06T08:41:01;99377.97;;;20.05;100.00
24230;BME280;12362;50.004;8.006;2023-08-06T08:43:27;99375.28;;;19.89;100.00
24230;BME280;12362;50.004;8.006;2023-08-06T08:45:56;99380.91;;;19.43;100.00
24230;BME280;12362;50.004;8.006;2023-08-06T08:48:25;99387.44;;;19.57;100.00
24230;BME280;12362;50.004;8.006;2023-08-06T08:50:52;99377.84;;;19.48;100.00
24230;BME280;12362;50.004;8.006;2023-08-06T08:53:17;99380.06;;;19.35;100.00
24230;BME280;12362;50.004;8.006;2023-08-06T08:55:46;99395.84;;;19.35;100.00
24230;BME280;12362;50.004;8.006;2023-08-06T08:58:12;99382.78;;;19.25;100.00
24230;BME280;12362;50.004;8.006;2023-08-06T09:00:40;99392.25;;;19.18;100.00
24230;BME280;12362;50.004;8.006;2023-08-06T09:03:07;99394.34;;;18.80;100.00
24230;BME280;12362;50.004;8.006;2023-08-06T09:05:33;99399.84;;;18.87;100.00
24230;BME280;12362;50.004;8.006;2023-08-06T09:08:02;99406.88;;;18.34;100.00
24230;BME280;12362;50.004;8.006;2023-08-06T09:10:28;99405.13;;;18.16;100.00
24230;BME280;12362;50.004;8.006;2023-08-06T09:12:55;99406.34;;;18.21;100.00
24230;BME280;12362;50.004;8.006;2023-08-06T09:15:25;99408.56;;;17.89;100.00
24230;BME280;12362;50.004;8.006;2023-08-06T09:17:54;99413.66;;;18.27;100.00
24230;BME280;12362;50.004;8.006;2023-08-06T09:20:20;99412.81;;;18.53;100.00
24230;BME280;12362;50.004;8.006;2023-08-06T09:22:46;99402.47;;;19.21;100.00
24230;BME280;12362;50.004;8.006;2023-08-06T09:25:21;99396.50;;;19.37;100.00
24230;BME280;12362;50.004;8.006;2023-08-06T09:27:49;99397.19;;;19.39;100.00
24230;BME280;12362;50.004;8.006;2023-08-06T09:30:32;99392.19;;;19.53;100.00
24230;BME280;12362;50.004;8.006;2023-08-06T09:32:57;99398.50;;;19.94;100.00
24230;BME280;12362;50.004;8.006;2023-08-06T09:35:23;99391.00;;;20.64;100.00
24230;BME280;12362;50.004;8.006;2023-08-06T09:37:49;99384.44;;;20.60;100.00
24230;BME280;12362;50.004;8.006;2023-08-06T09:40:29;99387.00;;;21.01;100.00
24230;BME280;12362;50.004;8.006;2023-08-06T09:42:55;99396.41;;;20.46;100.00
24230;BME280;12362;50.004;8.006;2023-08-06T09:45:21;99403.41;;;20.63;100.00
24230;BME280;12362;50.004;8.006;2023-08-06T09:47:50;99407.03;;;20.62;100.00
24230;BME280;12362;50.004;8.006;2023-08-06T09:50:19;99396.38;;;20.96;100.00
24230;BME280;12362;50.004;8.006;2023-08-06T09:52:46;99387.38;;;22.22;100.00
24230;BME280;12362;50.004;8.006;2023-08-06T09:55:13;99373.03;;;23.22;100.00
24230;BME280;12362;50.004;8.006;2023-08-06T09:57:40;99391.66;;;21.93;100.00
24230;BME280;12362;50.004;8.006;2023-08-06T10:00:07;99388.19;;;22.31;100.00
24230;BME280;12362;50.004;8.006;2023-08-06T10:02:38;99390.44;;;21.25;100.00
24230;BME280;12362;50.004;8.006;2023-08-06T10:05:09;99391.88;;;21.84;100.00
24230;BME280;12362;50.004;8.006;2023-08-06T10:07:36;99378.03;;;22.12;100.00
24230;BME280;12362;50.004;8.006;2023-08-06T10:10:02;99389.91;;;22.16;100.00
24230;BME280;12362;50.004;8.006;2023-08-06T10:12:34;99385.69;;;21.99;100.00
24230;BME280;12362;50.004;8.006;2023-08-06T10:15:03;99407.09;;;20.78;100.00
24230;BME280;12362;50.004;8.006;2023-08-06T10:17:31;99423.69;;;19.88;100.00
24230;BME280;12362;50.004;8.006;2023-08-06T10:19:58;99427.19;;;19.46;100.00
24230;BME280;12362;50.004;8.006;2023-08-06T10:22:24;99425.53;;;19.45;100.00
24230;BME280;12362;50.004;8.006;2023-08-06T10:24:54;99431.72;;;19.18;100.00
24230;BME280;12362;50.004;8.006;2023-08-06T10:30:27;99426.78;;;20.09;100.00
24230;BME280;12362;50.004;8.006;2023-08-06T10:32:55;99432.88;;;20.10;100.00
24230;BME280;12362;50.004;8.006;2023-08-06T10:38:14;99467.50;;;19.46;100.00
24230;BME280;12362;50.004;8.006;2023-08-06T10:40:42;99472.28;;;19.25;100.00
24230;BME280;12362;50.004;8.006;2023-08-06T10:43:08;99469.22;;;19.03;100.00
24230;BME280;12362;50.004;8.006;2023-08-06T10:45:50;99477.63;;;18.72;100.00
24230;BME280;12362;50.004;8.006;2023-08-06T10:48:28;99479.09;;;18.21;100.00
24230;BME280;12362;50.004;8.006;2023-08-06T10:50:54;99483.06;;;17.88;100.00
24230;BME280;12362;50.004;8.006;2023-08-06T10:53:21;99486.41;;;17.90;100.00
24230;BME280;12362;50.004;8.006;2023-08-06T10:55:46;99491.69;;;17.81;100.00
24230;BME280;12362;50.004;8.006;2023-08-06T10:58:15;99503.16;;;17.80;100.00
24230;BME280;12362;50.004;8.006;2023-08-06T11:00:40;99504.94;;;17.89;100.00
24230;BME280;12362;50.004;8.006;2023-08-06T11:03:06;99499.94;;;17.95;100.00
24230;BME280;12362;50.004;8.006;2023-08-06T11:05:32;99509.81;;;17.65;100.00
24230;BME280;12362;50.004;8.006;2023-08-06T11:07:58;99516.72;;;17.75;100.00
24230;BME280;12362;50.004;8.006;2023-08-06T11:10:23;99517.13;;;17.80;100.00
24230;BME280;12362;50.004;8.006;2023-08-06T11:12:49;99514.53;;;17.42;100.00
24230;BME280;12362;50.004;8.006;2023-08-06T11:15:14;99523.53;;;17.49;100.00
24230;BME280;12362;50.004;8.006;2023-08-06T11:17:40;99532.75;;;17.63;100.00
24230;BME280;12362;50.004;8.006;2023-08-06T11:20:07;99533.81;;;17.98;100.00
24230;BME280;12362;50.004;8.006;2023-08-06T11:22:33;99535.50;;;17.71;100.00
24230;BME280;12362;50.004;8.006;2023-08-06T11:24:58;99538.97;;;17.81;100.00
24230;BME280;12362;50.004;8.006;2023-08-06T11:27:26;99550.38;;;18.18;100.00
24230;BME280;12362;50.004;8.006;2023-08-06T11:29:53;99557.47;;;17.79;100.00
24230;BME280;12362;50.004;8.006;2023-08-06T11:32:19;99567.88;;;17.81;100.00
24230;BME280;12362;50.004;8.006;2023-08-06T11:34:44;99573.78;;;17.83;100.00
24230;BME280;12362;50.004;8.006;2023-08-06T11:37:10;99578.16;;;18.11;100.00
24230;BME280;12362;50.004;8.006;2023-08-06T11:39:37;99571.78;;;18.32;100.00
24230;BME280;12362;50.004;8.006;2023-08-06T11:42:04;99583.00;;;18.70;100.00
24230;BME280;12362;50.004;8.006;2023-08-06T11:44:31;99579.31;;;18.54;100.00
24230;BME280;12362;50.004;8.006;2023-08-06T11:47:00;99575.78;;;18.99;100.00
24230;BME280;12362;50.004;8.006;2023-08-06T11:49:49;99586.03;;;18.75;100.00
24230;BME280;12362;50.004;8.006;2023-08-06T11:52:22;99586.63;;;18.60;100.00
24230;BME280;12362;50.004;8.006;2023-08-06T11:55:00;99593.34;;;18.35;100.00
24230;BME280;12362;50.004;8.006;2023-08-06T11:57:32;99597.44;;;17.73;100.00
24230;BME280;12362;50.004;8.006;2023-08-06T12:00:04;99604.63;;;17.81;100.00
24230;BME280;12362;50.004;8.006;2023-08-06T12:02:42;99597.28;;;17.37;100.00
24230;BME280;12362;50.004;8.006;2023-08-06T12:05:18;99602.69;;;17.64;100.00
24230;BME280;12362;50.004;8.006;2023-08-06T12:08:04;99613.31;;;17.43;100.00
24230;BME280;12362;50.004;8.006;2023-08-06T12:10:30;99606.41;;;17.33;100.00
24230;BME280;12362;50.004;8.006;2023-08-06T12:12:56;99615.94;;;17.34;100.00
24230;BME280;12362;50.004;8.006;2023-08-06T12:15:22;99621.56;;;17.30;100.00
24230;BME280;12362;50.004;8.006;2023-08-06T12:17:49;99622.41;;;17.30;100.00
24230;BME280;12362;50.004;8.006;2023-08-06T12:20:15;99627.28;;;17.44;100.00
24230;BME280;12362;50.004;8.006;2023-08-06T12:22:40;99623.69;;;17.45;100.00
24230;BME280;12362;50.004;8.006;2023-08-06T12:25:08;99623.41;;;17.48;100.00
24230;BME280;12362;50.004;8.006;2023-08-06T12:27:34;99626.47;;;17.62;100.00
24230;BME280;12362;50.004;8.006;2023-08-06T12:29:59;99633.66;;;17.60;100.00
24230;BME280;12362;50.004;8.006;2023-08-06T12:32:26;99637.50;;;17.56;100.00
24230;BME280;12362;50.004;8.006;2023-08-06T12:34:51;99628.25;;;17.71;100.00
24230;BME280;12362;50.004;8.006;2023-08-06T12:37:17;99638.19;;;17.77;100.00
24230;BME280;12362;50.004;8.006;2023-08-06T12:39:42;99633.53;;;17.81;100.00
24230;BME280;12362;50.004;8.006;2023-08-06T12:42:07;99637.53;;;17.94;100.00
24230;BME280;12362;50.004;8.006;2023-08-06T12:44:33;99627.66;;;18.15;100.00
24230;BME280;12362;50.004;8.006;2023-08-06T12:46:59;99628.09;;;18.20;100.00
24230;BME280;12362;50.004;8.006;2023-08-06T12:49:25;99632.94;;;18.34;100.00
24230;BME280;12362;50.004;8.006;2023-08-06T12:51:52;99639.03;;;18.34;100.00
24230;BME280;12362;50.004;8.006;2023-08-06T12:54:19;99639.47;;;18.66;100.00
24230;BME280;12362;50.004;8.006;2023-08-06T12:56:45;99646.81;;;18.63;100.00